METAR Data
IDs: Format: Raw Decoded Include TAF

Data at: 1246 UTC 20 Oct 2021

LGIO 201220Z AUTO 34005KT 310V020 //// // ////// 20/06 Q1026 RE//